DW8188 Weather Reports


Display with metric or nautical units.
time (UTC)temp
F
wind
direction
speed
MPH
gust
MPH
rain 1hr
in
rain 24hr
in
rain mn
in
humidity
%
barometer
mb
20180420155846 77 203 0.0 7.0 0.00 0.00 0.00 29 1018.8
20180420154846 78 45 1.0 3.0 0.00 0.00 0.00 30 1019.0
20180420153846 77 158 0.0 0.0 0.00 0.00 0.00 30 1018.9
20180420151846 76 23 0.0 6.0 0.00 0.00 0.00 30 1019.1
20180420150846 77 158 2.0 8.0 0.00 0.00 0.00 30 1019.2
20180420145846 77 90 0.0 0.0 0.00 0.00 0.00 30 1019.3
20180420142846 78 203 0.0 2.0 0.00 0.00 0.00 30 1019.7
20180420141846 77 135 0.0 3.0 0.00 0.00 0.00 30 1019.7
20180420132846 76 180 4.0 9.0 0.00 0.00 0.00 33 1020.2
20180420123846 76 113 4.0 8.0 0.00 0.00 0.00 34 1021.0
20180420121846 75 135 4.0 11.0 0.00 0.00 0.00 36 1021.3
20180420115846 75 158 0.0 2.0 0.00 0.00 0.00 40 1021.5
20180420114846 75 90 0.0 2.0 0.00 0.00 0.00 37 1021.5
20180420113846 75 45 0.0 5.0 0.00 0.00 0.00 38 1021.6
20180420111846 74 0 0.0 4.0 0.00 0.00 0.00 41 1021.8
20180420110846 74 135 1.0 8.0 0.00 0.00 0.00 40 1022.0
20180420105846 73 338 0.0 11.0 0.00 0.00 0.00 41 1022.0
20180420104846 74 113 1.0 5.0 0.00 0.00 0.00 42 1022.0
20180420103846 74 90 0.0 1.0 0.00 0.00 0.00 43 1022.0
20180420101846 73 45 5.0 7.0 0.00 0.00 0.00 41 1022.1
20180420095846 73 113 6.0 8.0 0.00 0.00 0.00 42 1022.1
20180420093846 72 180 0.0 5.0 0.00 0.00 0.00 45 1022.0
20180420092846 71 203 0.0 0.0 0.00 0.00 0.00 47 1022.1
20180420090846 71 158 0.0 7.0 0.00 0.00 0.00 48 1022.1
20180420084846 70 158 0.0 0.0 0.00 0.00 0.00 47 1022.1
20180420083846 70 203 0.0 0.0 0.00 0.00 0.00 46 1022.1
20180420082846 70 158 0.0 4.0 0.00 0.00 0.00 45 1022.2
20180420080846 70 135 0.0 1.0 0.00 0.00 0.00 48 1022.0
20180420075846 70 90 3.0 4.0 0.00 0.00 0.00 47 1022.0
20180420074848 69 135 1.0 4.0 0.00 0.00 0.00 47 1022.0
20180420073846 69 158 0.0 0.0 0.00 0.00 0.00 48 1022.1
20180420072846 68 90 0.0 2.0 0.00 0.00 0.00 48 1022.1
20180420065846 65 90 0.0 0.0 0.00 0.00 0.00 51 1022.2
20180420064846 65 45 0.0 0.0 0.00 0.00 0.00 52 1021.9
20180420061846 65 113 0.0 0.0 0.00 0.00 0.00 55 1022.1
20180420060846 65 113 0.0 0.0 0.00 0.00 0.00 55 1022.0
20180420055846 63 0 0.0 0.0 0.00 0.00 0.00 58 1022.0
20180420050846 60 293 0.0 0.0 0.00 0.00 0.00 62 1021.8
20180420042846 58 293 0.0 0.0 0.00 0.00 0.00 63 1021.7
20180420041846 58 315 0.0 0.0 0.00 0.00 0.00 63 1021.6
20180420040846 58 293 0.0 0.0 0.00 0.00 0.00 63 1021.7
20180420034846 59 315 0.0 0.0 0.00 0.00 0.00 62 1021.5
20180420033846 59 315 0.0 0.0 0.00 0.00 0.00 62 1021.5
20180420032846 59 270 0.0 0.0 0.00 0.00 0.00 62 1021.4
20180420030846 58 293 0.0 0.0 0.00 0.00 0.00 63 1021.6
20180420025846 59 315 0.0 0.0 0.00 0.00 0.00 62 1021.6
20180420024846 59 293 0.0 0.0 0.00 0.00 0.00 62 1021.5
20180420022846 60 270 0.0 0.0 0.00 0.00 0.00 60 1021.6
20180420021846 60 293 0.0 0.0 0.00 0.00 0.00 61 1021.6
20180420012846 60 293 0.0 0.0 0.00 0.00 0.00 62 1022.0
20180420011846 59 293 0.0 0.0 0.00 0.00 0.00 63 1022.1
20180420004846 60 293 0.0 0.0 0.00 0.00 0.00 61 1022.3
20180420001846 59 293 0.0 0.0 0.00 0.00 0.00 62 1022.7
20180420000846 59 315 0.0 0.0 0.00 0.00 0.00 62 1022.7
20180419235846 60 293 0.0 0.0 0.00 0.00 0.00 62 1022.8
20180419234846 59 270 0.0 0.0 0.00 0.00 0.00 63 1022.8
20180419233846 59 0 0.0 0.0 0.00 0.00 0.00 63 1022.9
20180419232846 59 338 0.0 0.0 0.00 0.00 0.00 63 1023.0
20180419225846 61 293 0.0 0.0 0.00 0.00 0.00 60 1023.0
20180419222846 62 293 0.0 0.0 0.00 0.00 0.00 60 1023.3
20180419221846 61 293 0.0 0.0 0.00 0.00 0.00 60 1023.3
20180419215846 63 315 0.0 0.0 0.00 0.00 0.00 57 1023.4
20180419214846 64 293 0.0 0.0 0.00 0.00 0.00 56 1023.3
20180419213846 63 315 0.0 0.0 0.00 0.00 0.00 56 1023.2
20180419212846 64 338 0.0 0.0 0.00 0.00 0.00 56 1023.4
20180419211846 64 293 0.0 0.0 0.00 0.00 0.00 56 1023.5
20180419204846 64 293 0.0 0.0 0.00 0.00 0.00 56 1023.5
20180419203846 64 338 0.0 0.0 0.00 0.00 0.00 57 1023.6
20180419202846 63 338 0.0 0.0 0.00 0.00 0.00 58 1023.5
20180419201846 63 338 0.0 0.0 0.00 0.00 0.00 58 1023.5
20180419194846 65 293 0.0 0.0 0.00 0.00 0.00 57 1023.3
20180419192846 64 315 0.0 0.0 0.00 0.00 0.00 56 1023.2
20180419185846 64 315 0.0 0.0 0.00 0.00 0.00 54 1022.8
20180419182846 66 315 0.0 0.0 0.00 0.00 0.00 50 1022.6
20180419181846 67 293 0.0 0.0 0.00 0.00 0.00 48 1022.5
20180419174846 67 293 0.0 0.0 0.00 0.00 0.00 45 1022.3
20180419173846 68 270 0.0 0.0 0.00 0.00 0.00 44 1022.2
20180419172846 68 270 0.0 0.0 0.00 0.00 0.00 43 1022.3
20180419170846 69 270 0.0 0.0 0.00 0.00 0.00 42 1022.2
20180419165846 70 315 0.0 0.0 0.00 0.00 0.00 41 1022.1
20180419163846 74 90 0.0 2.0 0.00 0.00 0.00 35 1022.2